createdAt,value
2023-03-04T00:01:48.290Z,102109.69
2023-03-04T00:04:14.838Z,102109.56
2023-03-04T00:06:41.216Z,102111.97
2023-03-04T00:09:07.625Z,102111.84
2023-03-04T00:11:34.312Z,102115.66
2023-03-04T00:14:00.754Z,102100.06
2023-03-04T00:16:27.436Z,102101.31
2023-03-04T00:18:55.141Z,102110.06
2023-03-04T00:21:21.693Z,102103.91
2023-03-04T00:23:48.295Z,102107.59
2023-03-04T00:26:14.840Z,102095.44
2023-03-04T00:28:41.247Z,102099.84
2023-03-04T00:31:08.562Z,102102.97
2023-03-04T00:33:35.103Z,102090.22
2023-03-04T00:36:01.702Z,102095.72
2023-03-04T00:38:28.160Z,102096.19
2023-03-04T00:40:54.554Z,102097.25
2023-03-04T00:43:21.430Z,102082.13
2023-03-04T00:45:47.933Z,102090.78
2023-03-04T00:48:14.920Z,102095.25
2023-03-04T00:50:41.280Z,102092.59
2023-03-04T00:53:07.919Z,102094.66
2023-03-04T00:55:34.308Z,102076.53
2023-03-04T00:58:00.773Z,102073.34
2023-03-04T01:00:27.255Z,102083.88
2023-03-04T01:02:53.654Z,102076.25
2023-03-04T01:05:20.219Z,102070.66
2023-03-04T01:07:46.858Z,102081.75
2023-03-04T01:10:14.968Z,102070.06
2023-03-04T01:12:41.902Z,102074.44
2023-03-04T01:15:13.241Z,102073.09
2023-03-04T01:17:40.131Z,102068.06
2023-03-04T01:20:07.792Z,102076.13
2023-03-04T01:22:34.183Z,102066.81
2023-03-04T01:25:00.597Z,102071.88
2023-03-04T01:27:27.085Z,102054.69
2023-03-04T01:29:53.476Z,102062.75
2023-03-04T01:32:19.870Z,102061.84
2023-03-04T01:34:46.292Z,102059.72
2023-03-04T01:37:13.896Z,102061.53
2023-03-04T01:39:40.320Z,102058.13
2023-03-04T01:42:13.713Z,102055.22
2023-03-04T01:44:40.108Z,102049.88
2023-03-04T01:47:06.498Z,102044.72
2023-03-04T01:49:33.581Z,102049.38
2023-03-04T01:52:00.000Z,102050.56
2023-03-04T01:54:26.397Z,102034.13
2023-03-04T01:56:52.836Z,102034.53
2023-03-04T01:59:20.862Z,102025.25
2023-03-04T02:01:49.380Z,102027.72
2023-03-04T02:04:17.052Z,102012.03
2023-03-04T02:06:44.467Z,102015.88
2023-03-04T02:09:11.142Z,102014.84
2023-03-04T02:11:38.687Z,102024.41
2023-03-04T02:14:05.852Z,102015.13
2023-03-04T02:16:32.462Z,102008.94
2023-03-04T02:18:59.061Z,102004.69
2023-03-04T02:21:33.565Z,102012.31
2023-03-04T02:24:18.144Z,101999.84
2023-03-04T02:26:47.004Z,101992.59
2023-03-04T02:29:15.153Z,101997.25
2023-03-04T02:31:49.876Z,101998.47
2023-03-04T02:34:19.613Z,101990.84
2023-03-04T02:36:47.203Z,101997.66
2023-03-04T02:39:21.261Z,101990.78
2023-03-04T02:41:48.913Z,101985.66
2023-03-04T02:44:18.028Z,101988.81
2023-03-04T02:46:45.078Z,101990.78
2023-03-04T02:49:11.496Z,101987.06
2023-03-04T02:51:37.972Z,101978.16
2023-03-04T02:54:04.845Z,101985.09
2023-03-04T02:56:31.240Z,101977.38
2023-03-04T02:58:57.810Z,101969.66
2023-03-04T03:01:28.501Z,101970.31
2023-03-04T03:03:54.920Z,101963.03
2023-03-04T03:06:21.316Z,101962.00
2023-03-04T03:08:47.824Z,101960.66
2023-03-04T03:11:14.207Z,101965.88
2023-03-04T03:13:40.581Z,101964.28
2023-03-04T03:16:07.153Z,101961.31
2023-03-04T03:18:33.550Z,101953.63
2023-03-04T03:20:59.962Z,101950.06
2023-03-04T03:23:26.374Z,101945.47
2023-03-04T03:25:52.778Z,101946.72
2023-03-04T03:28:19.132Z,101944.59
2023-03-04T03:30:45.786Z,101941.13
2023-03-04T03:33:12.177Z,101952.50
2023-03-04T03:35:38.897Z,101947.94
2023-03-04T03:38:05.286Z,101935.56
2023-03-04T03:40:31.787Z,101942.53
2023-03-04T03:42:58.175Z,101948.06
2023-03-04T03:45:24.756Z,101937.38
2023-03-04T03:47:51.288Z,101937.31
2023-03-04T03:50:18.127Z,101927.09
2023-03-04T03:52:44.681Z,101938.28
2023-03-04T03:55:11.512Z,101933.47
2023-03-04T03:57:38.227Z,101937.31
2023-03-04T04:00:07.447Z,101942.13
2023-03-04T04:02:33.941Z,101933.28
2023-03-04T04:05:00.415Z,101926.38
2023-03-04T04:07:27.065Z,101920.81
2023-03-04T04:09:53.592Z,101929.00
2023-03-04T04:12:20.937Z,101921.00
2023-03-04T04:14:47.573Z,101927.78
2023-03-04T04:17:14.035Z,101926.09
2023-03-04T04:19:41.173Z,101902.59
2023-03-04T04:22:09.911Z,101897.47
2023-03-04T04:24:36.328Z,101897.34
2023-03-04T04:27:04.405Z,101912.53
2023-03-04T04:29:31.294Z,101902.06
2023-03-04T04:31:57.975Z,101896.00
2023-03-04T04:34:24.705Z,101900.19
2023-03-04T04:36:51.764Z,101896.69
2023-03-04T04:39:18.955Z,101892.88
2023-03-04T04:41:46.225Z,101906.16
2023-03-04T04:44:13.855Z,101901.38
2023-03-04T04:46:41.419Z,101912.34
2023-03-04T04:49:08.221Z,101896.69
2023-03-04T04:51:36.449Z,101904.94
2023-03-04T04:54:03.359Z,101898.66
2023-03-04T04:56:30.001Z,101911.22
2023-03-04T04:58:58.274Z,101888.91
2023-03-04T05:01:27.170Z,101910.09
2023-03-04T05:03:55.336Z,101891.16
2023-03-04T05:06:24.711Z,101912.31
2023-03-04T05:08:51.731Z,101892.44
2023-03-04T05:11:19.493Z,101905.41
2023-03-04T05:13:46.535Z,101892.78
2023-03-04T05:16:13.591Z,101890.25
2023-03-04T05:18:40.112Z,101899.19
2023-03-04T05:21:06.957Z,101901.84
2023-03-04T05:23:35.336Z,101895.00
2023-03-04T05:26:02.845Z,101896.41
2023-03-04T05:28:29.276Z,101898.00
2023-03-04T05:30:55.830Z,101905.16
2023-03-04T05:33:22.399Z,101903.56
2023-03-04T05:35:49.757Z,101898.09
2023-03-04T05:38:19.596Z,101899.47
2023-03-04T05:40:46.806Z,101894.34
2023-03-04T05:43:13.243Z,101897.22
2023-03-04T05:45:40.286Z,101900.66
2023-03-04T05:48:06.922Z,101904.78
2023-03-04T05:50:33.749Z,101896.56
2023-03-04T05:53:00.470Z,101896.41
2023-03-04T05:55:28.981Z,101892.16
2023-03-04T05:57:55.708Z,101895.84
2023-03-04T06:00:22.134Z,101885.44
2023-03-04T06:02:50.380Z,101883.78
2023-03-04T06:05:17.443Z,101896.41
2023-03-04T06:07:45.199Z,101898.88
2023-03-04T06:10:16.713Z,101894.72
2023-03-04T06:12:43.654Z,101901.81
2023-03-04T06:15:12.014Z,101881.25
2023-03-04T06:17:41.807Z,101899.16
2023-03-04T06:20:10.539Z,101881.91
2023-03-04T06:22:38.050Z,101888.34
2023-03-04T06:25:04.951Z,101877.00
2023-03-04T06:27:31.418Z,101891.22
2023-03-04T06:29:58.910Z,101894.16
2023-03-04T06:32:25.473Z,101892.03
2023-03-04T06:34:51.937Z,101896.81
2023-03-04T06:37:18.383Z,101899.81
2023-03-04T06:39:45.404Z,101899.22
2023-03-04T06:42:12.632Z,101904.63
2023-03-04T06:44:39.021Z,101904.47
2023-03-04T06:47:05.514Z,101903.59
2023-03-04T06:49:31.907Z,101910.47
2023-03-04T06:51:58.456Z,101909.09
2023-03-04T06:54:24.874Z,101915.13
2023-03-04T06:56:51.435Z,101915.56
2023-03-04T06:59:17.848Z,101923.56
2023-03-04T07:01:44.549Z,101919.81
2023-03-04T07:04:13.264Z,101923.56
2023-03-04T07:06:39.807Z,101921.06
2023-03-04T07:09:06.277Z,101918.16
2023-03-04T07:11:32.826Z,101912.00
2023-03-04T07:13:59.375Z,101915.88
2023-03-04T07:16:25.891Z,101914.66
2023-03-04T07:18:52.551Z,101924.00
2023-03-04T07:21:19.494Z,101915.94
2023-03-04T07:23:46.272Z,101923.78
2023-03-04T07:26:12.737Z,101917.47
2023-03-04T07:28:39.469Z,101920.53
2023-03-04T07:31:24.206Z,101932.19
2023-03-04T07:33:51.008Z,101930.53
2023-03-04T07:36:20.014Z,101923.38
2023-03-04T07:38:49.524Z,101921.19
2023-03-04T07:41:17.562Z,101932.34
2023-03-04T07:43:44.566Z,101927.59
2023-03-04T07:46:11.253Z,101922.97
2023-03-04T07:48:38.040Z,101927.06
2023-03-04T07:51:15.427Z,101936.72
2023-03-04T07:53:44.012Z,101919.34
2023-03-04T07:56:18.840Z,101933.41
2023-03-04T07:58:45.580Z,101939.78
2023-03-04T08:01:14.046Z,101929.25
2023-03-04T08:03:40.608Z,101924.38
2023-03-04T08:06:09.417Z,101921.28
2023-03-04T08:08:36.524Z,101930.03
2023-03-04T08:11:07.692Z,101927.44
2023-03-04T08:13:36.056Z,101926.41
2023-03-04T08:16:03.299Z,101929.44
2023-03-04T08:18:30.025Z,101939.34
2023-03-04T08:20:56.655Z,101940.72
2023-03-04T08:23:24.063Z,101933.94
2023-03-04T08:25:50.449Z,101927.97
2023-03-04T08:28:17.286Z,101932.47
2023-03-04T08:30:43.872Z,101931.59
2023-03-04T08:33:10.574Z,101934.53
2023-03-04T08:35:39.392Z,101934.97
2023-03-04T08:38:06.445Z,101945.94
2023-03-04T08:40:33.570Z,101939.19
2023-03-04T08:43:00.355Z,101934.09
2023-03-04T08:45:26.796Z,101950.50
2023-03-04T08:47:53.171Z,101939.91
2023-03-04T08:50:22.249Z,101940.56
2023-03-04T08:52:48.845Z,101965.84
2023-03-04T08:55:15.307Z,101948.28
2023-03-04T08:57:41.768Z,101939.72
2023-03-04T09:00:08.858Z,101941.34
2023-03-04T09:02:35.247Z,101948.94
2023-03-04T09:05:01.692Z,101942.34
2023-03-04T09:07:28.114Z,101943.28
2023-03-04T09:09:54.587Z,101969.22
2023-03-04T09:12:20.979Z,101970.97
2023-03-04T09:14:51.324Z,101962.13
2023-03-04T09:17:24.678Z,101965.91
2023-03-04T09:19:51.075Z,101956.09
2023-03-04T09:22:17.783Z,101962.13
2023-03-04T09:24:44.193Z,101963.94
2023-03-04T09:27:10.646Z,101957.34
2023-03-04T09:29:37.097Z,101955.31
2023-03-04T09:32:03.636Z,101952.03
2023-03-04T09:34:30.092Z,101964.00
2023-03-04T09:36:56.777Z,101977.25
2023-03-04T09:39:23.198Z,101969.69
2023-03-04T09:41:52.851Z,101970.13
2023-03-04T09:44:36.737Z,101975.44
2023-03-04T09:47:06.747Z,102020.94
2023-03-04T09:49:33.233Z,101987.66
2023-03-04T09:52:24.843Z,101999.06
2023-03-04T09:55:13.280Z,101980.88
2023-03-04T09:57:42.712Z,102002.16
2023-03-04T10:00:19.988Z,101991.50
2023-03-04T10:03:15.391Z,101985.38
2023-03-04T10:06:07.916Z,101977.78
2023-03-04T10:08:46.290Z,101979.78
2023-03-04T10:11:43.434Z,101991.03
2023-03-04T10:14:28.098Z,101967.84
2023-03-04T10:17:00.998Z,101968.44
2023-03-04T10:19:49.112Z,101985.00
2023-03-04T10:22:31.597Z,101981.03
2023-03-04T10:24:59.347Z,101977.59
2023-03-04T10:27:26.440Z,101980.84
2023-03-04T10:29:52.826Z,101973.03
2023-03-04T10:32:20.476Z,101986.97
2023-03-04T10:34:47.282Z,101976.91
2023-03-04T10:37:13.722Z,101981.84
2023-03-04T10:39:44.886Z,101986.94
2023-03-04T10:42:14.320Z,101974.41
2023-03-04T10:44:52.160Z,101984.44
2023-03-04T10:47:18.745Z,101992.56
2023-03-04T10:49:54.109Z,101974.38
2023-03-04T10:52:38.782Z,101974.03
2023-03-04T10:55:20.002Z,101970.88
2023-03-04T10:57:49.920Z,101968.59
2023-03-04T11:00:34.617Z,101968.22
2023-03-04T11:03:23.583Z,101971.31
2023-03-04T11:05:53.491Z,101967.63
2023-03-04T11:08:22.512Z,101970.38
2023-03-04T11:10:52.078Z,101958.38
2023-03-04T11:13:21.950Z,101950.09
2023-03-04T11:15:57.541Z,101949.09
2023-03-04T11:18:38.217Z,101937.44
2023-03-04T11:21:05.874Z,101940.16
2023-03-04T11:23:38.264Z,101958.16
2023-03-04T11:26:10.439Z,101961.78
2023-03-04T11:28:43.247Z,101934.88
2023-03-04T11:31:21.863Z,101921.94
2023-03-04T11:33:55.952Z,101943.38
2023-03-04T11:36:31.395Z,101938.81
2023-03-04T11:38:58.311Z,101926.63
2023-03-04T11:41:34.102Z,101914.28
2023-03-04T11:44:00.608Z,101916.03
2023-03-04T11:46:45.700Z,101921.53
2023-03-04T11:49:18.314Z,101932.44
2023-03-04T11:51:54.577Z,101933.91
2023-03-04T11:54:47.456Z,101937.78
2023-03-04T11:57:27.837Z,101930.97
2023-03-04T12:00:02.430Z,101922.28
2023-03-04T12:02:34.429Z,101944.81
2023-03-04T12:05:16.266Z,101919.66
2023-03-04T12:08:04.143Z,101918.19
2023-03-04T12:10:51.739Z,101919.41
2023-03-04T12:13:43.217Z,101921.31
2023-03-04T12:16:21.373Z,101923.19
2023-03-04T12:19:12.897Z,101922.47
2023-03-04T12:21:55.268Z,101919.28
2023-03-04T12:24:33.686Z,101924.16
2023-03-04T12:27:02.220Z,101930.91
2023-03-04T12:30:02.290Z,101935.97
2023-03-04T12:32:40.549Z,101926.47
2023-03-04T12:35:37.553Z,101920.25
2023-03-04T12:38:22.552Z,101913.88
2023-03-04T12:40:57.537Z,101910.63
2023-03-04T12:43:32.918Z,101904.13
2023-03-04T12:46:07.489Z,101893.59
2023-03-04T12:48:41.450Z,101902.91
2023-03-04T12:51:17.066Z,101890.28
2023-03-04T12:53:54.552Z,101890.00
2023-03-04T12:56:58.049Z,101890.38
2023-03-04T12:59:26.648Z,101881.38
2023-03-04T13:01:56.598Z,101883.13
2023-03-04T13:04:34.799Z,101885.06
2023-03-04T13:07:41.975Z,101888.59
2023-03-04T13:10:12.845Z,101888.28
2023-03-04T13:12:53.542Z,101878.09
2023-03-04T13:15:23.986Z,101875.38
2023-03-04T13:17:51.552Z,101870.72
2023-03-04T13:20:30.163Z,101891.84
2023-03-04T13:22:58.250Z,101887.28
2023-03-04T13:25:33.920Z,101884.34
2023-03-04T13:28:00.541Z,101888.22
2023-03-04T13:30:43.112Z,101878.50
2023-03-04T13:33:18.365Z,101886.13
2023-03-04T13:36:02.734Z,101881.00
2023-03-04T13:38:32.458Z,101884.50
2023-03-04T13:41:04.973Z,101883.69
2023-03-04T13:43:52.250Z,101884.41
2023-03-04T13:46:21.242Z,101888.41
2023-03-04T13:48:53.082Z,101888.34
2023-03-04T13:51:29.930Z,101878.31
2023-03-04T13:53:59.829Z,101886.34
2023-03-04T13:56:31.516Z,101876.38
2023-03-04T13:59:07.037Z,101882.16
2023-03-04T14:02:06.833Z,101885.75
2023-03-04T14:04:41.714Z,101891.22
2023-03-04T14:07:26.147Z,101890.63
2023-03-04T14:10:00.132Z,101887.34
2023-03-04T14:12:29.272Z,101883.38
2023-03-04T14:15:31.235Z,101895.63
2023-03-04T14:18:02.581Z,101880.66
2023-03-04T14:20:34.586Z,101887.75
2023-03-04T14:23:02.941Z,101873.22
2023-03-04T14:25:36.683Z,101861.22
2023-03-04T14:28:12.599Z,101868.94
2023-03-04T14:30:43.202Z,101891.72
2023-03-04T14:33:16.232Z,101888.56
2023-03-04T14:35:48.313Z,101889.81
2023-03-04T14:38:27.434Z,101867.13
2023-03-04T14:41:05.304Z,101867.88
2023-03-04T14:43:36.630Z,101870.38
2023-03-04T14:46:03.705Z,101882.75
2023-03-04T14:48:33.728Z,101883.41
2023-03-04T14:51:01.754Z,101881.78
2023-03-04T14:53:33.060Z,101888.09
2023-03-04T14:56:00.412Z,101870.03
2023-03-04T14:58:29.720Z,101865.88
2023-03-04T15:01:19.500Z,101857.91
2023-03-04T15:03:54.129Z,101894.63
2023-03-04T15:06:23.123Z,101868.03
2023-03-04T15:09:05.818Z,101866.19
2023-03-04T15:11:47.563Z,101868.69
2023-03-04T15:14:52.189Z,101869.00
2023-03-04T15:17:39.308Z,101855.38
2023-03-04T15:20:05.783Z,101858.28
2023-03-04T15:22:37.432Z,101857.34
2023-03-04T15:25:03.992Z,101845.94
2023-03-04T15:27:30.857Z,101857.84
2023-03-04T15:29:59.311Z,101848.72
2023-03-04T15:32:26.641Z,101861.56
2023-03-04T15:34:53.247Z,101853.13
2023-03-04T15:37:22.365Z,101865.69
2023-03-04T15:39:49.382Z,101857.94
2023-03-04T15:42:17.697Z,101851.72
2023-03-04T15:44:44.181Z,101873.47
2023-03-04T15:47:13.070Z,101842.88
2023-03-04T15:49:41.027Z,101845.97
2023-03-04T15:52:13.525Z,101841.53
2023-03-04T15:54:40.110Z,101851.47
2023-03-04T15:57:09.299Z,101837.13
2023-03-04T15:59:35.733Z,101849.97
2023-03-04T16:02:02.125Z,101863.56
2023-03-04T16:04:28.599Z,101845.78
2023-03-04T16:06:58.817Z,101844.13
2023-03-04T16:09:26.436Z,101831.91
2023-03-04T16:11:56.296Z,101847.81
2023-03-04T16:14:22.774Z,101845.81
2023-03-04T16:16:50.417Z,101846.28
2023-03-04T16:19:16.822Z,101851.44
2023-03-04T16:21:44.349Z,101840.63
2023-03-04T16:24:17.289Z,101833.03
2023-03-04T16:26:43.810Z,101824.28
2023-03-04T16:29:12.638Z,101841.31
2023-03-04T16:31:39.051Z,101827.00
2023-03-04T16:34:05.510Z,101841.84
2023-03-04T16:36:32.155Z,101837.81
2023-03-04T16:39:03.029Z,101835.78
2023-03-04T16:41:32.188Z,101835.19
2023-03-04T16:44:00.625Z,101845.16
2023-03-04T16:46:27.268Z,101827.75
2023-03-04T16:48:53.955Z,101840.81
2023-03-04T16:51:22.361Z,101828.25
2023-03-04T16:53:52.284Z,101819.47
2023-03-04T16:56:19.657Z,101818.78
2023-03-04T16:58:46.279Z,101825.72
2023-03-04T17:01:24.690Z,101819.38
2023-03-04T17:03:51.864Z,101817.97
2023-03-04T17:06:19.898Z,101831.50
2023-03-04T17:08:46.745Z,101826.88
2023-03-04T17:11:16.895Z,101827.63
2023-03-04T17:13:43.943Z,101832.03
2023-03-04T17:16:11.516Z,101834.13
2023-03-04T17:18:38.842Z,101832.78
2023-03-04T17:21:07.991Z,101845.63
2023-03-04T17:23:38.532Z,101827.75
2023-03-04T17:26:05.578Z,101833.66
2023-03-04T17:28:32.645Z,101838.28
2023-03-04T17:31:00.655Z,101828.19
2023-03-04T17:33:27.309Z,101833.88
2023-03-04T17:35:53.753Z,101846.03
2023-03-04T17:38:20.603Z,101834.97
2023-03-04T17:40:47.102Z,101841.97
2023-03-04T17:43:13.596Z,101843.09
2023-03-04T17:45:41.158Z,101833.81
2023-03-04T17:48:08.738Z,101840.28
2023-03-04T17:50:35.420Z,101839.03
2023-03-04T17:53:02.001Z,101830.22
2023-03-04T17:55:28.467Z,101842.78
2023-03-04T17:57:57.356Z,101840.13
2023-03-04T18:00:24.103Z,101834.22
2023-03-04T18:02:50.559Z,101837.47
2023-03-04T18:05:16.974Z,101836.44
2023-03-04T18:07:43.447Z,101843.09
2023-03-04T18:10:11.183Z,101835.16
2023-03-04T18:12:37.766Z,101827.66
2023-03-04T18:15:04.571Z,101838.66
2023-03-04T18:17:31.034Z,101842.50
2023-03-04T18:19:57.428Z,101835.91
2023-03-04T18:22:23.801Z,101839.31
2023-03-04T18:24:50.210Z,101840.38
2023-03-04T18:27:16.588Z,101829.50
2023-03-04T18:29:42.993Z,101844.53
2023-03-04T18:32:09.679Z,101833.41
2023-03-04T18:34:36.216Z,101836.63
2023-03-04T18:37:05.185Z,101836.22
2023-03-04T18:39:31.660Z,101839.84
2023-03-04T18:41:58.120Z,101827.97
2023-03-04T18:44:24.512Z,101831.66
2023-03-04T18:46:52.913Z,101819.72
2023-03-04T18:49:20.224Z,101841.16
2023-03-04T18:51:46.770Z,101835.00
2023-03-04T18:54:13.212Z,101830.31
2023-03-04T18:56:54.601Z,101817.81
2023-03-04T18:59:31.423Z,101826.06
2023-03-04T19:01:59.737Z,101829.78
2023-03-04T19:04:27.948Z,101833.88
2023-03-04T19:06:54.694Z,101834.81
2023-03-04T19:09:21.128Z,101827.03
2023-03-04T19:11:50.423Z,101832.28
2023-03-04T19:14:16.885Z,101833.28
2023-03-04T19:16:43.334Z,101828.91
2023-03-04T19:19:09.731Z,101833.44
2023-03-04T19:21:39.034Z,101832.78
2023-03-04T19:24:05.841Z,101824.31
2023-03-04T19:26:32.913Z,101838.66
2023-03-04T19:29:00.377Z,101828.94
2023-03-04T19:31:27.148Z,101837.91
2023-03-04T19:33:53.626Z,101834.84
2023-03-04T19:36:20.206Z,101831.16
2023-03-04T19:38:46.633Z,101844.47
2023-03-04T19:41:17.411Z,101837.41
2023-03-04T19:43:45.908Z,101851.41
2023-03-04T19:46:16.963Z,101849.34
2023-03-04T19:48:45.199Z,101847.78
2023-03-04T19:51:16.909Z,101843.47
2023-03-04T19:53:43.881Z,101845.50
2023-03-04T19:56:10.897Z,101845.56
2023-03-04T19:58:37.352Z,101823.06
2023-03-04T20:01:04.314Z,101821.94
2023-03-04T20:03:30.814Z,101827.78
2023-03-04T20:06:07.912Z,101824.34
2023-03-04T20:08:37.856Z,101834.56
2023-03-04T20:11:11.552Z,101833.06
2023-03-04T20:13:37.954Z,101828.22
2023-03-04T20:16:09.458Z,101828.72
2023-03-04T20:18:36.053Z,101824.34
2023-03-04T20:21:02.824Z,101817.75
2023-03-04T20:23:29.444Z,101828.34
2023-03-04T20:25:55.959Z,101823.78
2023-03-04T20:28:25.702Z,101820.53
2023-03-04T20:30:53.418Z,101829.38
2023-03-04T20:33:20.585Z,101823.88
2023-03-04T20:35:47.416Z,101822.16
2023-03-04T20:38:16.144Z,101827.03
2023-03-04T20:40:42.620Z,101842.75
2023-03-04T20:43:10.074Z,101826.78
2023-03-04T20:45:37.286Z,101838.00
2023-03-04T20:48:05.587Z,101846.03
2023-03-04T20:50:32.011Z,101833.06
2023-03-04T20:53:01.527Z,101837.13
2023-03-04T20:55:28.119Z,101818.31
2023-03-04T20:57:54.754Z,101840.09
2023-03-04T21:00:21.596Z,101821.63
2023-03-04T21:02:48.017Z,101816.44
2023-03-04T21:05:14.637Z,101823.81
2023-03-04T21:07:41.060Z,101824.44
2023-03-04T21:10:07.797Z,101814.06
2023-03-04T21:12:34.295Z,101813.47
2023-03-04T21:15:08.199Z,101815.59
2023-03-04T21:17:34.662Z,101797.75
2023-03-04T21:20:01.051Z,101798.06
2023-03-04T21:22:28.838Z,101807.25
2023-03-04T21:24:55.902Z,101794.84
2023-03-04T21:27:23.625Z,101794.66
2023-03-04T21:29:50.192Z,101810.59
2023-03-04T21:32:24.611Z,101812.25
2023-03-04T21:34:52.420Z,101806.66
2023-03-04T21:37:20.473Z,101814.16
2023-03-04T21:39:46.981Z,101811.00
2023-03-04T21:42:13.608Z,101808.00
2023-03-04T21:44:48.970Z,101815.41
2023-03-04T21:47:16.589Z,101812.34
2023-03-04T21:49:43.250Z,101800.91
2023-03-04T21:52:09.780Z,101803.06
2023-03-04T21:54:36.165Z,101792.59
2023-03-04T21:57:02.684Z,101794.00
2023-03-04T21:59:29.154Z,101790.16
2023-03-04T22:01:55.688Z,101790.56
2023-03-04T22:04:22.216Z,101786.94
2023-03-04T22:06:48.904Z,101784.19
2023-03-04T22:09:15.765Z,101788.56
2023-03-04T22:11:42.287Z,101788.59
2023-03-04T22:14:10.503Z,101791.63
2023-03-04T22:16:48.936Z,101787.00
2023-03-04T22:19:20.927Z,101783.94
2023-03-04T22:21:47.395Z,101782.16
2023-03-04T22:24:13.811Z,101775.88
2023-03-04T22:26:40.218Z,101777.28
2023-03-04T22:29:06.628Z,101773.66
2023-03-04T22:31:35.744Z,101777.34
2023-03-04T22:34:05.220Z,101768.50
2023-03-04T22:36:33.536Z,101769.88
2023-03-04T22:39:01.759Z,101771.94
2023-03-04T22:41:28.249Z,101772.97
2023-03-04T22:43:55.020Z,101770.88
2023-03-04T22:46:27.297Z,101763.34
2023-03-04T22:48:56.346Z,101771.16
2023-03-04T22:51:23.497Z,101760.88
2023-03-04T22:53:51.753Z,101758.84
2023-03-04T22:56:19.247Z,101764.97
2023-03-04T22:58:47.033Z,101764.28
2023-03-04T23:01:15.299Z,101756.91
2023-03-04T23:03:42.557Z,101749.41
2023-03-04T23:06:30.828Z,101748.00
2023-03-04T23:08:58.125Z,101755.28
2023-03-04T23:11:27.976Z,101751.16
2023-03-04T23:13:54.742Z,101751.59
2023-03-04T23:16:24.372Z,101754.75
2023-03-04T23:18:51.909Z,101737.31
2023-03-04T23:21:23.988Z,101744.50
2023-03-04T23:23:51.974Z,101740.19
2023-03-04T23:26:21.315Z,101737.41
2023-03-04T23:28:48.310Z,101741.59
2023-03-04T23:31:15.113Z,101721.28
2023-03-04T23:33:44.650Z,101720.84
2023-03-04T23:36:15.254Z,101710.25
2023-03-04T23:38:43.762Z,101705.81
2023-03-04T23:41:15.192Z,101694.34
2023-03-04T23:43:41.916Z,101691.34
2023-03-04T23:46:12.367Z,101697.38
2023-03-04T23:48:43.742Z,101701.75
2023-03-04T23:51:10.916Z,101683.25
2023-03-04T23:53:39.185Z,101697.91
2023-03-04T23:56:10.339Z,101692.66
2023-03-04T23:58:36.889Z,101685.47
